createdAt,value
2022-10-29T00:00:56.590Z,94.97
2022-10-29T00:03:24.522Z,94.17
2022-10-29T00:05:58.441Z,93.12
2022-10-29T00:08:25.378Z,92.71
2022-10-29T00:10:52.258Z,93.18
2022-10-29T00:13:19.492Z,93.74
2022-10-29T00:15:46.176Z,94.39
2022-10-29T00:18:12.944Z,94.94
2022-10-29T00:20:39.609Z,95.40
2022-10-29T00:23:06.254Z,96.58
2022-10-29T00:25:32.950Z,98.00
2022-10-29T00:27:59.644Z,99.71
2022-10-29T00:30:26.443Z,100.00
2022-10-29T00:32:53.273Z,100.00
2022-10-29T00:35:20.053Z,100.00
2022-10-29T00:37:46.702Z,100.00
2022-10-29T00:40:13.644Z,100.00
2022-10-29T00:42:40.359Z,100.00
2022-10-29T00:45:14.639Z,100.00
2022-10-29T00:47:41.540Z,100.00
2022-10-29T00:50:12.970Z,100.00
2022-10-29T00:52:46.322Z,100.00
2022-10-29T00:55:15.883Z,100.00
2022-10-29T00:57:48.767Z,100.00
2022-10-29T01:00:17.426Z,100.00
2022-10-29T01:02:45.664Z,100.00
2022-10-29T01:05:16.805Z,100.00
2022-10-29T01:07:43.686Z,100.00
2022-10-29T01:10:11.903Z,99.44
2022-10-29T01:12:59.626Z,100.00
2022-10-29T01:15:48.261Z,100.00
2022-10-29T01:18:22.897Z,100.00
2022-10-29T01:20:55.509Z,100.00
2022-10-29T01:23:28.333Z,100.00
2022-10-29T01:26:04.296Z,100.00
2022-10-29T01:28:52.444Z,100.00
2022-10-29T01:31:23.884Z,100.00
2022-10-29T01:34:25.272Z,100.00
2022-10-29T01:37:03.528Z,100.00
2022-10-29T01:39:39.355Z,100.00
2022-10-29T01:42:23.360Z,100.00
2022-10-29T01:45:19.102Z,100.00
2022-10-29T01:47:57.076Z,100.00
2022-10-29T01:50:25.726Z,100.00
2022-10-29T01:52:55.176Z,100.00
2022-10-29T01:55:30.751Z,100.00
2022-10-29T01:57:57.768Z,100.00
2022-10-29T02:00:25.648Z,100.00
2022-10-29T02:03:33.815Z,100.00
2022-10-29T02:06:08.545Z,100.00
2022-10-29T02:08:41.301Z,100.00
2022-10-29T02:11:16.150Z,100.00
2022-10-29T02:14:02.217Z,100.00
2022-10-29T02:16:30.015Z,100.00
2022-10-29T02:18:58.131Z,100.00
2022-10-29T02:21:24.905Z,100.00
2022-10-29T02:23:51.940Z,100.00
2022-10-29T02:26:18.666Z,100.00
2022-10-29T02:28:45.332Z,100.00
2022-10-29T02:31:12.037Z,100.00
2022-10-29T02:33:38.923Z,100.00
2022-10-29T02:36:06.015Z,100.00
2022-10-29T02:38:32.647Z,100.00
2022-10-29T02:40:59.373Z,100.00
2022-10-29T02:43:26.042Z,100.00
2022-10-29T02:46:12.479Z,100.00
2022-10-29T02:48:39.121Z,100.00
2022-10-29T02:51:06.127Z,100.00
2022-10-29T02:53:32.782Z,100.00
2022-10-29T02:55:59.595Z,100.00
2022-10-29T02:58:26.339Z,100.00
2022-10-29T03:00:53.271Z,100.00
2022-10-29T03:03:20.326Z,100.00
2022-10-29T03:05:49.096Z,100.00
2022-10-29T03:08:16.428Z,100.00
2022-10-29T03:10:43.289Z,100.00
2022-10-29T03:13:10.654Z,100.00
2022-10-29T03:15:37.858Z,100.00
2022-10-29T03:18:05.555Z,100.00
2022-10-29T03:20:32.432Z,100.00
2022-10-29T03:22:59.051Z,100.00
2022-10-29T03:25:25.714Z,100.00
2022-10-29T03:27:52.367Z,100.00
2022-10-29T03:30:19.028Z,100.00
2022-10-29T03:32:48.360Z,100.00
2022-10-29T03:35:16.449Z,100.00
2022-10-29T03:37:43.467Z,100.00
2022-10-29T03:40:10.764Z,100.00
2022-10-29T03:42:38.899Z,100.00
2022-10-29T03:45:07.004Z,97.47
2022-10-29T03:47:34.068Z,94.86
2022-10-29T03:50:00.743Z,94.34
2022-10-29T03:52:27.655Z,95.61
2022-10-29T03:54:54.367Z,96.83
2022-10-29T03:57:21.161Z,97.37
2022-10-29T03:59:51.589Z,97.99
2022-10-29T04:02:19.541Z,98.54
2022-10-29T04:04:46.267Z,99.34
2022-10-29T04:07:12.977Z,100.00
2022-10-29T04:09:39.875Z,100.00
2022-10-29T04:12:07.263Z,100.00
2022-10-29T04:14:34.267Z,100.00
2022-10-29T04:17:00.978Z,100.00
2022-10-29T04:19:27.711Z,100.00
2022-10-29T04:30:15.145Z,100.00
2022-10-29T04:32:41.791Z,97.94
2022-10-29T04:35:08.604Z,96.52
2022-10-29T04:37:35.290Z,98.94
2022-10-29T04:40:01.995Z,100.00
2022-10-29T04:42:28.705Z,100.00
2022-10-29T04:44:55.352Z,100.00
2022-10-29T04:47:21.991Z,100.00
2022-10-29T04:49:48.684Z,100.00
2022-10-29T04:52:15.317Z,100.00
2022-10-29T04:54:41.963Z,97.19
2022-10-29T04:57:08.611Z,95.32
2022-10-29T04:59:35.301Z,93.70
2022-10-29T05:02:01.935Z,92.75
2022-10-29T05:04:29.596Z,92.07
2022-10-29T05:06:56.454Z,92.14
2022-10-29T05:09:23.130Z,94.06
2022-10-29T05:11:49.792Z,95.94
2022-10-29T05:14:16.513Z,96.29
2022-10-29T05:16:43.194Z,93.07
2022-10-29T05:19:09.865Z,91.17
2022-10-29T05:21:36.547Z,90.65
2022-10-29T05:24:03.369Z,92.66
2022-10-29T05:26:32.291Z,95.64
2022-10-29T05:28:59.017Z,97.65
2022-10-29T05:31:25.696Z,99.53
2022-10-29T05:33:55.532Z,100.00
2022-10-29T05:36:22.714Z,100.00
2022-10-29T05:38:49.380Z,100.00
2022-10-29T05:41:16.066Z,100.00
2022-10-29T05:43:42.721Z,100.00
2022-10-29T05:46:09.344Z,100.00
2022-10-29T05:48:36.009Z,100.00
2022-10-29T05:51:02.846Z,100.00
2022-10-29T05:53:29.486Z,100.00
2022-10-29T05:55:56.175Z,100.00
2022-10-29T05:58:22.854Z,100.00
2022-10-29T06:00:49.496Z,100.00
2022-10-29T06:03:19.654Z,100.00
2022-10-29T06:05:47.571Z,100.00
2022-10-29T06:08:14.312Z,100.00
2022-10-29T06:10:41.152Z,100.00
2022-10-29T06:13:16.570Z,100.00
2022-10-29T06:15:43.475Z,100.00
2022-10-29T06:18:10.366Z,100.00
2022-10-29T06:20:38.324Z,100.00
2022-10-29T06:23:05.373Z,100.00
2022-10-29T06:25:32.437Z,100.00
2022-10-29T06:28:04.239Z,100.00
2022-10-29T06:30:32.375Z,100.00
2022-10-29T06:32:59.848Z,100.00
2022-10-29T06:35:26.905Z,100.00
2022-10-29T06:37:54.031Z,100.00
2022-10-29T06:40:21.115Z,100.00
2022-10-29T06:42:47.875Z,100.00
2022-10-29T06:45:16.105Z,100.00
2022-10-29T06:47:44.722Z,100.00
2022-10-29T06:50:13.325Z,100.00
2022-10-29T06:52:40.040Z,100.00
2022-10-29T06:55:08.312Z,100.00
2022-10-29T06:57:36.381Z,100.00
2022-10-29T07:00:08.349Z,100.00
2022-10-29T07:02:35.540Z,100.00
2022-10-29T07:05:02.250Z,100.00
2022-10-29T07:07:29.495Z,100.00
2022-10-29T07:09:56.331Z,100.00
2022-10-29T07:12:22.979Z,100.00
2022-10-29T07:14:49.657Z,100.00
2022-10-29T07:17:16.318Z,100.00
2022-10-29T07:19:42.980Z,100.00
2022-10-29T07:22:09.674Z,100.00
2022-10-29T07:24:36.343Z,100.00
2022-10-29T07:27:03.144Z,100.00
2022-10-29T07:29:29.878Z,100.00
2022-10-29T07:31:56.545Z,100.00
2022-10-29T07:34:23.204Z,100.00
2022-10-29T07:36:49.851Z,100.00
2022-10-29T07:39:17.352Z,100.00
2022-10-29T07:41:44.073Z,100.00
2022-10-29T07:44:11.172Z,100.00
2022-10-29T07:46:37.826Z,100.00
2022-10-29T07:49:04.611Z,100.00
2022-10-29T07:51:31.296Z,100.00
2022-10-29T07:53:57.989Z,100.00
2022-10-29T07:56:24.689Z,100.00
2022-10-29T07:58:51.368Z,99.61
2022-10-29T08:01:18.081Z,100.00
2022-10-29T08:03:44.870Z,99.77
2022-10-29T08:06:11.542Z,99.45
2022-10-29T08:08:45.349Z,99.14
2022-10-29T08:11:12.003Z,97.52
2022-10-29T08:13:38.707Z,96.22
2022-10-29T08:16:05.718Z,95.38
2022-10-29T08:18:32.507Z,95.03
2022-10-29T08:20:59.247Z,94.63
2022-10-29T08:23:25.959Z,93.98
2022-10-29T08:25:52.617Z,93.68
2022-10-29T08:28:20.876Z,92.86
2022-10-29T08:30:51.648Z,93.19
2022-10-29T08:33:18.386Z,92.44
2022-10-29T08:35:45.061Z,91.51
2022-10-29T08:38:11.761Z,90.45
2022-10-29T08:41:05.742Z,89.86
2022-10-29T08:43:52.388Z,89.12
2022-10-29T08:46:38.189Z,88.69
2022-10-29T08:49:10.902Z,88.48
2022-10-29T08:51:40.509Z,87.91
2022-10-29T08:57:17.941Z,87.28
2022-10-29T09:00:25.739Z,87.34
2022-10-29T09:03:00.724Z,86.87
2022-10-29T09:05:33.009Z,87.39
2022-10-29T09:08:47.638Z,86.38
2022-10-29T09:11:14.226Z,86.02
2022-10-29T09:14:09.605Z,85.17
2022-10-29T09:17:10.216Z,85.14
2022-10-29T09:20:16.981Z,83.67
2022-10-29T09:22:49.311Z,82.07
2022-10-29T09:25:28.072Z,80.91
2022-10-29T09:28:26.766Z,81.24
2022-10-29T09:31:15.104Z,80.47
2022-10-29T09:33:43.002Z,80.27
2022-10-29T09:36:18.514Z,79.67
2022-10-29T09:39:02.556Z,81.36
2022-10-29T09:41:34.048Z,80.30
2022-10-29T09:44:19.615Z,79.43
2022-10-29T09:47:21.880Z,78.81
2022-10-29T09:50:05.387Z,77.29
2022-10-29T09:52:41.960Z,78.15
2022-10-29T09:55:18.816Z,73.82
2022-10-29T09:57:46.865Z,72.75
2022-10-29T10:00:17.301Z,73.66
2022-10-29T10:03:21.524Z,74.67
2022-10-29T10:06:06.920Z,75.42
2022-10-29T10:08:35.331Z,75.71
2022-10-29T10:11:07.281Z,76.53
2022-10-29T10:13:50.362Z,77.06
2022-10-29T10:16:24.698Z,78.86
2022-10-29T10:18:51.383Z,78.28
2022-10-29T10:21:27.249Z,76.17
2022-10-29T10:23:57.116Z,76.99
2022-10-29T10:26:34.651Z,78.62
2022-10-29T10:29:12.196Z,79.62
2022-10-29T10:31:40.012Z,78.68
2022-10-29T10:34:15.407Z,78.18
2022-10-29T10:36:51.315Z,74.22
2022-10-29T10:39:31.997Z,73.87
2022-10-29T10:42:02.537Z,72.18
2022-10-29T10:44:29.640Z,71.86
2022-10-29T10:47:04.615Z,70.03
2022-10-29T10:49:39.160Z,68.67
2022-10-29T10:52:15.591Z,69.16
2022-10-29T10:54:46.809Z,68.49
2022-10-29T10:57:13.395Z,68.44
2022-10-29T11:00:06.534Z,67.93
2022-10-29T11:02:53.776Z,68.47
2022-10-29T11:05:35.896Z,69.25
2022-10-29T11:08:14.780Z,68.29
2022-10-29T11:11:06.972Z,68.31
2022-10-29T11:13:34.474Z,66.39
2022-10-29T11:16:16.378Z,66.11
2022-10-29T11:18:56.737Z,66.14
2022-10-29T11:21:28.919Z,66.07
2022-10-29T11:24:19.096Z,63.74
2022-10-29T11:26:55.490Z,62.99
2022-10-29T11:29:31.331Z,63.02
2022-10-29T11:32:16.781Z,63.48
2022-10-29T11:34:48.533Z,62.68
2022-10-29T11:37:30.280Z,62.42
2022-10-29T11:40:06.504Z,61.32
2022-10-29T11:42:33.171Z,62.70
2022-10-29T11:45:00.620Z,61.72
2022-10-29T11:47:52.628Z,61.77
2022-10-29T11:50:26.568Z,59.98
2022-10-29T11:53:11.874Z,60.64
2022-10-29T11:56:00.957Z,59.97
2022-10-29T11:58:41.117Z,61.85
2022-10-29T12:01:44.304Z,63.49
2022-10-29T12:04:21.136Z,65.74
2022-10-29T12:07:02.295Z,66.72
2022-10-29T12:09:40.772Z,66.55
2022-10-29T12:12:31.216Z,66.42
2022-10-29T12:15:25.734Z,67.72
2022-10-29T12:18:18.932Z,69.52
2022-10-29T12:21:06.768Z,70.55
2022-10-29T12:23:51.367Z,71.56
2022-10-29T12:26:48.939Z,70.29
2022-10-29T12:29:34.302Z,71.01
2022-10-29T12:32:11.513Z,66.03
2022-10-29T12:34:47.228Z,65.77
2022-10-29T12:37:16.623Z,65.18
2022-10-29T12:39:55.769Z,63.85
2022-10-29T12:42:25.853Z,63.47
2022-10-29T12:45:11.232Z,68.22
2022-10-29T12:47:48.528Z,69.73
2022-10-29T12:50:15.327Z,69.95
2022-10-29T12:53:03.478Z,70.32
2022-10-29T12:55:31.411Z,70.37
2022-10-29T12:57:58.108Z,70.05
2022-10-29T13:00:24.716Z,70.45
2022-10-29T13:02:55.963Z,71.55
2022-10-29T13:05:35.254Z,72.90
2022-10-29T13:08:01.839Z,73.05
2022-10-29T13:10:34.501Z,73.22
2022-10-29T13:13:16.271Z,73.91
2022-10-29T13:15:42.809Z,73.66
2022-10-29T13:18:12.556Z,73.42
2022-10-29T13:20:42.853Z,72.39
2022-10-29T13:23:21.708Z,71.10
2022-10-29T13:25:53.177Z,71.87
2022-10-29T13:28:19.803Z,71.42
2022-10-29T13:30:48.247Z,70.84
2022-10-29T13:33:24.179Z,70.75
2022-10-29T13:35:53.578Z,70.91
2022-10-29T13:38:46.938Z,71.29
2022-10-29T13:41:25.167Z,70.14
2022-10-29T13:44:03.247Z,69.06
2022-10-29T13:47:01.104Z,69.09
2022-10-29T13:49:34.185Z,69.58
2022-10-29T13:52:05.501Z,69.54
2022-10-29T13:54:47.491Z,70.31
2022-10-29T13:57:30.790Z,70.89
2022-10-29T14:00:10.926Z,70.83
2022-10-29T14:02:47.304Z,71.01
2022-10-29T14:05:38.414Z,70.01
2022-10-29T14:08:20.167Z,70.95
2022-10-29T14:10:52.098Z,71.17
2022-10-29T14:13:28.039Z,71.50
2022-10-29T14:16:06.708Z,71.85
2022-10-29T14:18:41.289Z,73.41
2022-10-29T14:21:29.401Z,76.11
2022-10-29T14:24:08.306Z,77.40
2022-10-29T14:26:42.648Z,78.13
2022-10-29T14:29:25.728Z,78.00
2022-10-29T14:32:07.556Z,77.77
2022-10-29T14:34:34.200Z,77.58
2022-10-29T14:37:17.302Z,77.76
2022-10-29T14:39:58.504Z,77.54
2022-10-29T14:42:25.654Z,77.70
2022-10-29T14:44:56.002Z,77.78
2022-10-29T14:47:34.509Z,78.20
2022-10-29T14:50:06.241Z,78.50
2022-10-29T14:52:38.601Z,79.10
2022-10-29T14:55:16.785Z,79.03
2022-10-29T14:57:48.687Z,79.53
2022-10-29T15:00:30.292Z,79.48
2022-10-29T15:02:57.703Z,79.58
2022-10-29T15:05:33.618Z,79.98
2022-10-29T15:08:29.551Z,79.59
2022-10-29T15:10:58.049Z,79.96
2022-10-29T15:13:29.491Z,80.63
2022-10-29T15:16:01.011Z,81.82
2022-10-29T15:18:28.739Z,82.41
2022-10-29T15:20:56.027Z,83.97
2022-10-29T15:23:26.962Z,84.42
2022-10-29T15:26:06.523Z,85.23
2022-10-29T15:28:43.064Z,86.14
2022-10-29T15:31:46.579Z,87.37
2022-10-29T15:34:34.795Z,86.54
2022-10-29T15:37:19.586Z,85.77
2022-10-29T15:39:55.736Z,84.93
2022-10-29T15:42:28.126Z,84.46
2022-10-29T15:47:50.896Z,84.42
2022-10-29T15:50:19.279Z,83.96
2022-10-29T15:52:52.111Z,83.70
2022-10-29T15:55:27.185Z,83.70
2022-10-29T15:57:59.545Z,83.58
2022-10-29T16:00:26.520Z,83.48
2022-10-29T16:02:56.053Z,83.41
2022-10-29T16:05:22.931Z,83.52
2022-10-29T16:07:49.662Z,83.05
2022-10-29T16:10:20.391Z,82.95
2022-10-29T16:12:49.442Z,82.90
2022-10-29T16:15:19.292Z,82.53
2022-10-29T16:17:47.227Z,82.53
2022-10-29T16:20:16.643Z,82.62
2022-10-29T16:22:44.418Z,82.43
2022-10-29T16:25:27.482Z,82.05
2022-10-29T16:27:55.412Z,82.24
2022-10-29T16:30:23.521Z,82.18
2022-10-29T16:32:51.113Z,82.25
2022-10-29T16:35:26.129Z,82.00
2022-10-29T16:37:54.430Z,81.87
2022-10-29T16:40:24.005Z,81.56
2022-10-29T16:42:50.952Z,81.31
2022-10-29T16:45:25.624Z,80.87
2022-10-29T16:47:52.552Z,80.67
2022-10-29T16:50:23.604Z,80.67
2022-10-29T16:53:01.244Z,81.13
2022-10-29T16:55:29.036Z,81.63
2022-10-29T16:57:56.798Z,81.93
2022-10-29T17:00:26.101Z,82.26
2022-10-29T17:02:52.957Z,82.04
2022-10-29T17:05:19.685Z,82.21
2022-10-29T17:07:46.402Z,81.94
2022-10-29T17:10:13.085Z,82.02
2022-10-29T17:12:39.860Z,81.82
2022-10-29T17:15:07.704Z,81.75
2022-10-29T17:17:34.348Z,81.72
2022-10-29T17:20:01.076Z,81.57
2022-10-29T17:22:27.714Z,81.44
2022-10-29T17:24:54.367Z,81.47
2022-10-29T17:27:21.032Z,81.58
2022-10-29T17:29:48.051Z,82.12
2022-10-29T17:32:14.792Z,83.08
2022-10-29T17:34:41.462Z,84.56
2022-10-29T17:37:09.221Z,85.79
2022-10-29T17:39:35.898Z,87.10
2022-10-29T17:42:02.624Z,88.27
2022-10-29T17:44:29.444Z,89.56
2022-10-29T17:46:56.376Z,91.03
2022-10-29T17:49:23.133Z,92.21
2022-10-29T17:51:49.789Z,93.55
2022-10-29T17:54:17.098Z,94.95
2022-10-29T17:56:44.096Z,96.50
2022-10-29T17:59:10.775Z,98.23
2022-10-29T18:01:37.642Z,99.27
2022-10-29T18:04:06.098Z,99.85
2022-10-29T18:06:33.542Z,100.00
2022-10-29T18:09:00.877Z,100.00
2022-10-29T18:11:28.341Z,100.00
2022-10-29T18:13:56.708Z,100.00
2022-10-29T18:16:26.268Z,100.00
2022-10-29T18:19:01.981Z,100.00
2022-10-29T18:21:30.734Z,100.00
2022-10-29T18:23:57.442Z,100.00
2022-10-29T18:26:35.458Z,100.00
2022-10-29T18:29:10.213Z,100.00
2022-10-29T18:31:38.135Z,100.00
2022-10-29T18:34:07.733Z,100.00
2022-10-29T18:36:38.911Z,100.00
2022-10-29T18:39:06.556Z,100.00
2022-10-29T18:41:34.349Z,100.00
2022-10-29T18:44:01.435Z,100.00
2022-10-29T18:46:28.172Z,100.00
2022-10-29T18:48:54.908Z,100.00
2022-10-29T18:51:30.244Z,100.00
2022-10-29T18:53:58.125Z,100.00
2022-10-29T18:56:26.655Z,100.00
2022-10-29T18:58:55.654Z,100.00
2022-10-29T19:01:25.652Z,100.00
2022-10-29T19:03:57.660Z,100.00
2022-10-29T19:06:25.257Z,100.00
2022-10-29T19:08:52.371Z,100.00
2022-10-29T19:11:21.330Z,100.00
2022-10-29T19:13:58.656Z,100.00
2022-10-29T19:16:26.283Z,100.00
2022-10-29T19:18:58.371Z,100.00
2022-10-29T19:21:26.353Z,100.00
2022-10-29T19:23:55.445Z,100.00
2022-10-29T19:26:23.533Z,100.00
2022-10-29T19:28:50.425Z,100.00
2022-10-29T19:31:23.336Z,100.00
2022-10-29T19:33:52.744Z,100.00
2022-10-29T19:36:20.345Z,100.00
2022-10-29T19:38:47.716Z,100.00
2022-10-29T19:41:15.726Z,100.00
2022-10-29T19:43:43.517Z,100.00
2022-10-29T19:46:12.666Z,100.00
2022-10-29T19:48:40.594Z,100.00
2022-10-29T19:51:09.109Z,100.00
2022-10-29T19:53:38.479Z,100.00
2022-10-29T19:56:07.353Z,100.00
2022-10-29T19:58:34.057Z,100.00
2022-10-29T20:01:06.254Z,100.00
2022-10-29T20:03:33.000Z,100.00
2022-10-29T20:05:59.867Z,100.00
2022-10-29T20:08:27.429Z,100.00
2022-10-29T20:10:58.340Z,100.00
2022-10-29T20:13:25.781Z,100.00
2022-10-29T20:15:53.345Z,100.00
2022-10-29T20:18:20.660Z,100.00
2022-10-29T20:20:53.895Z,100.00
2022-10-29T20:23:20.601Z,100.00
2022-10-29T20:25:47.285Z,100.00
2022-10-29T20:28:13.941Z,100.00
2022-10-29T20:30:40.600Z,100.00
2022-10-29T20:33:07.248Z,100.00
2022-10-29T20:35:33.919Z,100.00
2022-10-29T20:38:00.802Z,100.00
2022-10-29T20:40:27.737Z,100.00
2022-10-29T20:42:54.517Z,100.00
2022-10-29T20:45:22.349Z,100.00
2022-10-29T20:47:49.252Z,100.00
2022-10-29T20:50:16.441Z,100.00
2022-10-29T20:52:48.061Z,100.00
2022-10-29T20:55:17.084Z,100.00
2022-10-29T20:57:43.737Z,100.00
2022-10-29T21:00:11.247Z,99.77
2022-10-29T21:02:39.370Z,99.11
2022-10-29T21:05:06.573Z,98.16
2022-10-29T21:07:33.470Z,97.46
2022-10-29T21:10:00.176Z,95.77
2022-10-29T21:12:27.017Z,94.28
2022-10-29T21:14:53.848Z,92.79
2022-10-29T21:17:22.383Z,90.98
2022-10-29T21:19:49.347Z,89.88
2022-10-29T21:22:19.309Z,88.32
2022-10-29T21:24:46.274Z,87.86
2022-10-29T21:27:13.023Z,87.59
2022-10-29T21:29:40.916Z,87.38
2022-10-29T21:32:11.301Z,87.58
2022-10-29T21:34:41.792Z,87.89
2022-10-29T21:37:08.779Z,88.28
2022-10-29T21:39:35.727Z,88.21
2022-10-29T21:42:02.671Z,88.82
2022-10-29T21:44:29.360Z,89.60
2022-10-29T21:46:56.050Z,90.18
2022-10-29T21:49:22.843Z,91.09
2022-10-29T21:51:50.035Z,91.44
2022-10-29T21:54:16.895Z,91.64
2022-10-29T21:56:43.671Z,91.28
2022-10-29T21:59:10.700Z,91.75
2022-10-29T22:01:40.114Z,92.95
2022-10-29T22:04:06.920Z,93.68
2022-10-29T22:06:34.382Z,94.28
2022-10-29T22:09:01.260Z,94.54
2022-10-29T22:11:28.976Z,95.01
2022-10-29T22:13:56.348Z,95.48
2022-10-29T22:16:23.445Z,95.38
2022-10-29T22:18:51.227Z,95.56
2022-10-29T22:21:24.032Z,94.13
2022-10-29T22:23:54.347Z,93.10
2022-10-29T22:26:26.818Z,92.21
2022-10-29T22:28:53.930Z,91.15
2022-10-29T22:31:22.020Z,90.26
2022-10-29T22:33:49.531Z,89.41
2022-10-29T22:36:23.814Z,88.97
2022-10-29T22:38:55.309Z,89.18
2022-10-29T22:41:23.135Z,89.30
2022-10-29T22:43:49.860Z,89.14
2022-10-29T22:46:18.284Z,88.95
2022-10-29T22:48:45.687Z,89.92
2022-10-29T22:51:22.757Z,91.71
2022-10-29T22:53:51.098Z,92.93
2022-10-29T22:56:21.337Z,93.73
2022-10-29T22:58:48.717Z,94.44
2022-10-29T23:01:18.851Z,94.98
2022-10-29T23:03:45.914Z,94.99
2022-10-29T23:06:16.836Z,94.91
2022-10-29T23:08:44.714Z,94.09
2022-10-29T23:11:19.409Z,94.40
2022-10-29T23:13:56.420Z,95.16
2022-10-29T23:16:30.862Z,96.27
2022-10-29T23:19:01.627Z,97.16
2022-10-29T23:21:29.153Z,97.56
2022-10-29T23:23:56.055Z,97.49
2022-10-29T23:26:24.799Z,97.32
2022-10-29T23:28:51.826Z,97.56
2022-10-29T23:31:23.527Z,98.31
2022-10-29T23:33:52.306Z,98.54
2022-10-29T23:36:20.653Z,98.93
2022-10-29T23:38:47.842Z,98.38
2022-10-29T23:41:14.706Z,98.53
2022-10-29T23:43:41.416Z,98.49
2022-10-29T23:46:08.075Z,98.60
2022-10-29T23:48:34.802Z,98.43
2022-10-29T23:51:01.447Z,98.63
2022-10-29T23:53:28.569Z,98.70
2022-10-29T23:55:55.255Z,98.81
2022-10-29T23:58:21.908Z,98.21
